Time;durP1;ratioP1;P1;durP2;ratioP2;P2;SDS_P1;SDS_P2;PMS_P1;PMS_P2;Temp;Humidity;BMP_temperature;BMP_pressure;BME280_temperature;BME280_humidity;BME280_pressure;Samples;Min_cycle;Max_cycle;Signal;HPM_P1;HPM_P2
2021/03/09 00:01:47;;;;;;;50.22;25.20;;;103.10;1459.20;;;;;;4878519;29;20029;-68
2021/03/09 00:04:12;;;;;;;52.08;26.05;;;103.10;1433.60;;;;;;4864015;29;20030;-74
2021/03/09 00:06:38;;;;;;;47.83;24.83;;;103.00;1459.20;;;;;;4864061;29;20116;-68
2021/03/09 00:09:04;;;;;;;51.00;27.50;;;103.00;1459.20;;;;;;4864354;29;20468;-74
2021/03/09 00:11:29;;;;;;;50.85;27.98;;;103.00;1459.20;;;;;;4864109;29;20052;-77
2021/03/09 00:13:55;;;;;;;60.00;29.13;;;103.00;1459.20;;;;;;4864003;29;20089;-68
2021/03/09 00:16:21;;;;;;;47.83;25.98;;;103.00;1459.20;;;;;;4863655;29;20052;-74
2021/03/09 00:18:47;;;;;;;42.75;24.60;;;103.00;1484.80;;;;;;4864022;29;20033;-69
2021/03/09 00:21:12;;;;;;;41.85;23.45;;;102.90;1484.80;;;;;;4864038;29;20173;-68
2021/03/09 00:23:38;;;;;;;40.65;23.35;;;102.90;1484.80;;;;;;4863973;29;20036;-69
2021/03/09 00:26:04;;;;;;;39.50;23.38;;;102.90;1484.80;;;;;;4863530;29;20025;-75
2021/03/09 00:28:29;;;;;;;40.25;22.85;;;102.90;1484.80;;;;;;4863919;29;20032;-69
2021/03/09 00:30:55;;;;;;;43.70;23.65;;;102.90;1484.80;;;;;;4863414;29;20116;-67
2021/03/09 00:33:21;;;;;;;42.17;24.02;;;102.90;1484.80;;;;;;4863374;29;20045;-74
2021/03/09 00:35:47;;;;;;;41.25;22.02;;;102.90;1510.40;;;;;;4863923;29;20033;-74
2021/03/09 00:38:12;;;;;;;38.75;23.15;;;102.80;1510.40;;;;;;4863638;29;20029;-75
2021/03/09 00:40:38;;;;;;;35.85;21.88;;;102.80;1510.40;;;;;;4863684;29;20029;-68
2021/03/09 00:43:04;;;;;;;38.03;23.15;;;102.80;1510.40;;;;;;4863604;29;20037;-75
2021/03/09 00:45:29;;;;;;;40.85;23.17;;;102.80;1510.40;;;;;;4863477;29;20029;-68
2021/03/09 00:47:55;;;;;;;38.13;22.65;;;102.80;1510.40;;;;;;4863608;29;20464;-67
2021/03/09 00:50:21;;;;;;;36.67;21.23;;;102.80;1510.40;;;;;;4863297;29;20029;-67
2021/03/09 00:52:47;;;;;;;33.90;20.67;;;102.70;1510.40;;;;;;4862083;29;20065;-68
2021/03/09 00:55:12;;;;;;;39.03;22.38;;;102.70;1510.40;;;;;;4863229;29;20041;-67
2021/03/09 00:57:38;;;;;;;37.80;21.17;;;102.70;1510.40;;;;;;4863368;29;20409;-65
2021/03/09 01:00:04;;;;;;;39.88;22.08;;;102.70;1510.40;;;;;;4863305;29;20038;-74
2021/03/09 01:02:30;;;;;;;36.03;19.88;;;102.70;1510.40;;;;;;4863202;29;20038;-72
2021/03/09 01:04:56;;;;;;;32.38;19.27;;;102.60;1510.40;;;;;;4862948;29;20399;-66
2021/03/09 01:07:22;;;;;;;31.73;18.13;;;102.60;1510.40;;;;;;4863013;29;20025;-73
2021/03/09 01:09:48;;;;;;;30.92;18.60;;;102.60;1510.40;;;;;;4862928;29;20034;-66
2021/03/09 01:12:13;;;;;;;29.05;16.35;;;102.60;1510.40;;;;;;4862789;29;20373;-70
2021/03/09 01:14:39;;;;;;;30.00;17.92;;;102.60;1510.40;;;;;;4863054;29;20045;-72
2021/03/09 01:17:05;;;;;;;28.38;16.77;;;102.50;1510.40;;;;;;4862770;29;20104;-67
2021/03/09 01:19:30;;;;;;;30.05;17.13;;;102.50;1510.40;;;;;;4862954;29;20037;-66
2021/03/09 01:21:56;;;;;;;30.45;16.70;;;102.50;1510.40;;;;;;4862773;29;20105;-71
2021/03/09 01:24:22;;;;;;;32.75;17.23;;;102.50;1510.40;;;;;;4862919;29;20118;-66
2021/03/09 01:26:48;;;;;;;30.90;17.90;;;102.50;1510.40;;;;;;4862645;29;20609;-67
2021/03/09 01:29:13;;;;;;;33.88;18.17;;;102.40;1510.40;;;;;;4862710;29;20077;-66
2021/03/09 01:31:39;;;;;;;30.88;18.35;;;102.40;1510.40;;;;;;4862649;29;20036;-67
2021/03/09 01:34:05;;;;;;;33.08;18.90;;;102.40;1510.40;;;;;;4862307;29;20053;-71
2021/03/09 01:36:30;;;;;;;34.80;18.52;;;102.40;1510.40;;;;;;4862751;29;20377;-66
2021/03/09 01:38:56;;;;;;;36.70;19.00;;;102.40;1510.40;;;;;;4862365;29;20052;-70
2021/03/09 01:41:22;;;;;;;36.50;17.42;;;77.70;1510.40;;;;;;4861785;29;20061;-68
2021/03/09 01:43:48;;;;;;;29.30;16.85;;;77.70;1510.40;;;;;;4862517;29;20029;-71
2021/03/09 01:46:15;;;;;;;24.83;14.25;;;77.70;1510.40;;;;;;4862453;29;20029;-72
2021/03/09 01:48:46;;;;;;;26.27;14.93;;;77.70;1510.40;;;;;;4862393;29;20109;-73
2021/03/09 01:51:18;;;;;;;26.80;14.52;;;77.70;1510.40;;;;;;4862381;29;20041;-69
2021/03/09 01:53:44;;;;;;;23.08;14.48;;;77.60;1510.40;;;;;;4862350;29;20026;-65
2021/03/09 01:56:10;;;;;;;25.73;13.27;;;77.60;1510.40;;;;;;4861936;29;20097;-65
2021/03/09 01:58:40;;;;;;;20.13;12.80;;;77.60;1510.40;;;;;;4862223;29;20035;-70
2021/03/09 02:01:05;;;;;;;20.70;12.05;;;77.60;1510.40;;;;;;4862197;29;20025;-69
2021/03/09 02:03:31;;;;;;;18.92;11.43;;;77.60;1510.40;;;;;;4862099;29;20085;-65
2021/03/09 02:05:57;;;;;;;16.95;10.60;;;77.60;1510.40;;;;;;4860625;29;20048;-73
2021/03/09 02:08:23;;;;;;;17.17;10.88;;;77.60;1510.40;;;;;;4862149;29;20033;-66
2021/03/09 02:10:49;;;;;;;18.98;11.02;;;77.50;1510.40;;;;;;4861972;29;20430;-69
2021/03/09 02:13:38;;;;;;;20.50;10.40;;;77.50;1510.40;;;;;;4861819;29;20025;-65
2021/03/09 02:16:10;;;;;;;19.83;10.93;;;77.50;1510.40;;;;;;4862000;29;20120;-72
2021/03/09 02:18:41;;;;;;;19.00;10.52;;;77.50;1510.40;;;;;;4876094;29;20373;-65
2021/03/09 02:21:20;;;;;;;17.45;10.90;;;77.50;1510.40;;;;;;4861969;29;20041;-73
2021/03/09 02:24:19;;;;;;;20.08;11.02;;;77.40;1510.40;;;;;;4861726;29;20052;-71
2021/03/09 02:27:27;;;;;;;22.27;12.32;;;77.40;1510.40;;;;;;4861886;29;20037;-65
2021/03/09 02:30:32;;;;;;;20.05;12.40;;;77.40;1510.40;;;;;;4861744;29;20089;-64
2021/03/09 02:33:10;;;;;;;22.50;12.68;;;77.40;1510.40;;;;;;4859631;29;20120;-65
2021/03/09 02:35:42;;;;;;;23.30;11.95;;;77.30;1510.40;;;;;;4859556;29;20053;-68
2021/03/09 02:38:11;;;;;;;19.33;11.90;;;77.30;1510.40;;;;;;4859540;29;20493;-69
2021/03/09 02:40:37;;;;;;;18.73;10.27;;;77.30;1536.00;;;;;;4859391;29;20120;-64
2021/03/09 02:43:11;;;;;;;18.83;10.20;;;77.30;1510.40;;;;;;4859893;29;20125;-64
2021/03/09 02:45:38;;;;;;;20.17;11.57;;;77.30;1536.00;;;;;;4859496;29;20033;-69
2021/03/09 02:48:05;;;;;;;19.13;11.77;;;77.20;1536.00;;;;;;4859428;29;20038;-63
2021/03/09 02:50:33;;;;;;;22.77;13.07;;;77.20;1536.00;;;;;;4859492;29;20037;-64
2021/03/09 02:53:11;;;;;;;23.60;14.05;;;77.20;1536.00;;;;;;4859277;29;20071;-69
2021/03/09 02:55:39;;;;;;;21.40;12.93;;;77.20;1536.00;;;;;;4859229;29;20038;-64
2021/03/09 02:58:09;;;;;;;21.85;12.68;;;77.10;1536.00;;;;;;4859265;29;20033;-68
2021/03/09 03:00:37;;;;;;;25.35;13.18;;;77.10;1536.00;;;;;;4859145;29;20113;-63
2021/03/09 03:03:07;;;;;;;24.40;13.10;;;77.10;1536.00;;;;;;4859303;29;20032;-64
2021/03/09 03:05:33;;;;;;;24.77;13.05;;;77.10;1536.00;;;;;;4859687;29;20033;-64
2021/03/09 03:08:02;;;;;;;24.15;14.15;;;77.10;1536.00;;;;;;4861175;29;20033;-64
2021/03/09 03:10:28;;;;;;;28.58;14.30;;;77.00;1536.00;;;;;;4861283;29;20116;-73
2021/03/09 03:12:55;;;;;;;20.45;12.23;;;77.00;1536.00;;;;;;4861328;29;20021;-64
2021/03/09 03:15:21;;;;;;;29.05;13.57;;;77.00;1536.00;;;;;;4861027;29;20048;-73
2021/03/09 03:17:47;;;;;;;23.42;11.88;;;77.00;1536.00;;;;;;4861337;29;20081;-65
2021/03/09 03:20:16;;;;;;;18.27;11.00;;;77.00;1536.00;;;;;;4861309;29;20165;-64
2021/03/09 03:22:43;;;;;;;20.55;11.15;;;77.00;1536.00;;;;;;4861053;29;20032;-65
2021/03/09 03:25:12;;;;;;;22.13;12.77;;;77.00;1536.00;;;;;;4861172;29;20059;-64
2021/03/09 03:27:40;;;;;;;24.98;13.55;;;76.90;1536.00;;;;;;4861022;29;20469;-64
2021/03/09 03:30:08;;;;;;;30.60;14.27;;;76.90;1536.00;;;;;;4861158;29;20026;-65
2021/03/09 03:32:35;;;;;;;29.40;15.75;;;76.90;1561.60;;;;;;4861051;29;20037;-69
2021/03/09 03:35:01;;;;;;;36.00;18.17;;;76.90;1536.00;;;;;;4860619;29;20038;-63
2021/03/09 03:37:27;;;;;;;42.28;18.00;;;76.90;1536.00;;;;;;4861006;29;20049;-70
2021/03/09 03:39:52;;;;;;;37.72;17.48;;;76.80;1536.00;;;;;;4860684;29;20037;-66
2021/03/09 03:42:18;;;;;;;37.03;16.98;;;76.80;1536.00;;;;;;4861067;29;20441;-73
2021/03/09 03:44:44;;;;;;;33.53;17.17;;;76.80;1536.00;;;;;;4861051;29;20026;-64
2021/03/09 03:47:10;;;;;;;36.13;16.92;;;76.80;1536.00;;;;;;4861122;29;20054;-63
2021/03/09 03:49:35;;;;;;;37.30;15.95;;;76.80;1536.00;;;;;;4860924;29;20029;-70
2021/03/09 03:52:25;;;;;;;25.85;14.90;;;76.80;1536.00;;;;;;4861101;29;20029;-63
2021/03/09 03:55:00;;;;;;;30.65;13.45;;;76.80;1536.00;;;;;;4858739;29;20045;-62
2021/03/09 03:57:41;;;;;;;25.73;14.40;;;52.10;1536.00;;;;;;4858977;29;20038;-71
2021/03/09 04:00:07;;;;;;;29.95;14.45;;;52.10;1536.00;;;;;;4858843;29;20037;-71
2021/03/09 04:02:37;;;;;;;25.13;13.50;;;52.10;1536.00;;;;;;4858886;29;20487;-70
2021/03/09 04:05:06;;;;;;;24.83;12.50;;;52.10;1536.00;;;;;;4860111;29;20089;-67
2021/03/09 04:07:34;;;;;;;30.95;13.65;;;52.10;1536.00;;;;;;4862007;29;20070;-62
2021/03/09 04:10:00;;;;;;;27.27;13.48;;;52.10;1536.00;;;;;;4862082;29;20399;-67
2021/03/09 04:12:29;;;;;;;32.90;14.85;;;52.10;1587.20;;;;;;4861914;29;20044;-67
2021/03/09 04:14:59;;;;;;;26.25;13.13;;;52.10;1587.20;;;;;;4862036;29;20443;-63
2021/03/09 04:17:26;;;;;;;27.25;11.45;;;52.10;1561.60;;;;;;4862029;29;20053;-67
2021/03/09 04:19:55;;;;;;;18.67;10.88;;;52.00;1561.60;;;;;;4861830;29;20036;-62
2021/03/09 04:22:21;;;;;;;20.60;10.25;;;52.00;1561.60;;;;;;4861836;29;20068;-65
2021/03/09 04:24:49;;;;;;;20.13;9.52;;;52.00;1561.60;;;;;;4861835;29;20038;-67
2021/03/09 04:27:21;;;;;;;18.77;10.85;;;52.00;1536.00;;;;;;4862057;29;20034;-63
2021/03/09 04:29:58;;;;;;;21.75;10.25;;;52.00;1561.60;;;;;;4861884;29;20029;-67
2021/03/09 04:32:25;;;;;;;21.52;11.07;;;52.00;1561.60;;;;;;4862954;29;20061;-62
2021/03/09 04:34:51;;;;;;;22.40;11.40;;;52.00;1536.00;;;;;;4863758;29;20065;-67
2021/03/09 04:37:18;;;;;;;21.48;11.13;;;51.90;1536.00;;;;;;4863738;29;20057;-67
2021/03/09 04:39:44;;;;;;;22.80;12.20;;;51.90;1561.60;;;;;;4863604;29;20090;-63
2021/03/09 04:42:11;;;;;;;23.95;11.27;;;51.90;1561.60;;;;;;4863337;29;20025;-64
2021/03/09 04:44:40;;;;;;;19.30;9.13;;;51.90;1561.60;;;;;;4863549;29;20100;-62
2021/03/09 04:47:08;;;;;;;18.85;9.50;;;51.90;1561.60;;;;;;4863283;29;20033;-63
2021/03/09 04:49:36;;;;;;;15.43;9.10;;;51.90;1561.60;;;;;;4863620;29;20037;-62
2021/03/09 04:52:02;;;;;;;14.40;8.93;;;51.80;1561.60;;;;;;4863352;29;20056;-67
2021/03/09 04:54:28;;;;;;;15.35;8.77;;;51.80;1561.60;;;;;;4863365;29;20128;-63
2021/03/09 04:56:54;;;;;;;20.98;9.75;;;51.80;1561.60;;;;;;4863430;29;20030;-66
2021/03/09 04:59:20;;;;;;;19.63;10.27;;;51.80;1561.60;;;;;;4863389;29;20048;-62
2021/03/09 05:01:46;;;;;;;21.75;10.57;;;51.80;1561.60;;;;;;4863308;29;20473;-66
2021/03/09 05:04:12;;;;;;;20.77;11.50;;;51.70;1561.60;;;;;;4863245;29;20031;-66
2021/03/09 05:06:38;;;;;;;22.05;13.18;;;51.70;1561.60;;;;;;4862999;29;20441;-63
2021/03/09 05:09:04;;;;;;;22.48;11.85;;;51.70;1561.60;;;;;;4863240;29;20036;-62
2021/03/09 05:11:31;;;;;;;18.30;10.40;;;51.70;1561.60;;;;;;4862936;29;20037;-66
2021/03/09 05:13:57;;;;;;;21.25;11.30;;;51.70;1561.60;;;;;;4862952;29;20037;-67
2021/03/09 05:16:23;;;;;;;20.58;10.77;;;51.70;1561.60;;;;;;4861893;29;20117;-64
2021/03/09 05:18:49;;;;;;;27.75;13.20;;;51.70;1587.20;;;;;;4863043;29;20468;-67
2021/03/09 05:21:15;;;;;;;57.53;22.08;;;51.70;1561.60;;;;;;4862795;29;20571;-67
2021/03/09 05:23:41;;;;;;;64.47;25.02;;;51.60;1561.60;;;;;;4862930;29;20112;-62
2021/03/09 05:26:07;;;;;;;72.18;27.73;;;51.70;1587.20;;;;;;4862879;29;20112;-63
2021/03/09 05:28:33;;;;;;;61.65;25.35;;;51.70;1561.60;;;;;;4863034;29;20045;-62
2021/03/09 05:30:59;;;;;;;48.03;19.83;;;51.70;1561.60;;;;;;4862685;29;20502;-62
2021/03/09 05:33:25;;;;;;;37.35;17.50;;;51.70;1587.20;;;;;;4861975;29;20424;-62
2021/03/09 05:35:51;;;;;;;35.28;15.93;;;51.80;1587.20;;;;;;4862563;29;20037;-66
2021/03/09 05:38:16;;;;;;;30.77;14.90;;;51.80;1561.60;;;;;;4876690;29;20402;-65
2021/03/09 05:40:42;;;;;;;26.73;12.70;;;51.80;1561.60;;;;;;4862405;29;20030;-67
2021/03/09 05:43:10;;;;;;;27.25;11.70;;;51.90;1561.60;;;;;;4862532;29;20021;-67
2021/03/09 05:45:36;;;;;;;25.42;13.30;;;51.90;1561.60;;;;;;4862491;29;20032;-66
2021/03/09 05:48:03;;;;;;;27.02;13.65;;;51.90;1561.60;;;;;;4862435;29;20040;-66
2021/03/09 05:50:29;;;;;;;33.30;15.95;;;52.00;1561.60;;;;;;4862379;29;20029;-67
2021/03/09 05:52:54;;;;;;;38.42;18.85;;;52.00;1561.60;;;;;;4862281;29;20033;-66
2021/03/09 05:55:20;;;;;;;38.35;18.00;;;52.10;1561.60;;;;;;4861959;29;20045;-62
2021/03/09 05:57:47;;;;;;;33.97;17.70;;;52.10;1561.60;;;;;;4862336;29;20112;-62
2021/03/09 06:00:14;;;;;;;33.70;17.60;;;52.10;1561.60;;;;;;4862146;29;20080;-66
2021/03/09 06:02:40;;;;;;;29.77;15.95;;;76.80;1561.60;;;;;;4862070;29;20064;-66
2021/03/09 06:05:08;;;;;;;28.90;15.43;;;76.80;1561.60;;;;;;4861752;29;20069;-62
2021/03/09 06:07:35;;;;;;;37.13;17.15;;;76.90;1561.60;;;;;;4862294;29;20392;-62
2021/03/09 06:10:02;;;;;;;46.47;20.55;;;77.00;1561.60;;;;;;4861874;29;20030;-67
2021/03/09 06:12:28;;;;;;;43.35;22.23;;;77.00;1561.60;;;;;;4861747;29;20068;-62
2021/03/09 06:15:00;;;;;;;42.28;20.17;;;77.10;1561.60;;;;;;4861696;29;20073;-63
2021/03/09 06:17:32;;;;;;;52.08;23.60;;;77.10;1561.60;;;;;;4861822;29;20037;-62
2021/03/09 06:19:58;;;;;;;42.88;21.30;;;77.10;1561.60;;;;;;4861680;29;20048;-63
2021/03/09 06:22:44;;;;;;;43.53;19.52;;;77.20;1561.60;;;;;;4861696;29;20033;-65
2021/03/09 06:25:15;;;;;;;37.42;18.85;;;77.30;1561.60;;;;;;4861872;29;20037;-62
2021/03/09 06:27:41;;;;;;;28.35;15.93;;;77.30;1536.00;;;;;;4861498;29;20029;-63
2021/03/09 06:30:10;;;;;;;28.00;14.95;;;77.40;1536.00;;;;;;4861718;29;20041;-66
2021/03/09 06:32:44;;;;;;;28.48;15.00;;;77.40;1510.40;;;;;;4861534;29;20044;-66
2021/03/09 06:35:31;;;;;;;29.85;15.48;;;77.50;1510.40;;;;;;4861626;29;20500;-66
2021/03/09 06:38:16;;;;;;;32.40;16.50;;;77.50;1510.40;;;;;;4861522;29;20110;-63
2021/03/09 06:40:43;;;;;;;35.75;16.92;;;77.60;1510.40;;;;;;4861725;29;20090;-63
2021/03/09 06:43:17;;;;;;;38.70;19.13;;;77.60;1510.40;;;;;;4861653;29;20034;-63
2021/03/09 06:45:42;;;;;;;33.83;18.00;;;77.70;1510.40;;;;;;4861472;29;20033;-63
2021/03/09 06:48:22;;;;;;;37.97;18.67;;;77.70;1510.40;;;;;;4861407;29;20030;-66
2021/03/09 06:50:48;;;;;;;51.55;24.60;;;77.70;1510.40;;;;;;4861473;29;20372;-65
2021/03/09 06:53:26;;;;;;;49.28;22.92;;;102.40;1510.40;;;;;;4861479;29;20097;-66
2021/03/09 06:55:52;;;;;;;36.47;19.65;;;102.50;1484.80;;;;;;4861434;29;20417;-63
2021/03/09 06:58:25;;;;;;;41.95;18.38;;;102.50;1484.80;;;;;;4861455;29;20022;-66
2021/03/09 07:00:51;;;;;;;34.15;17.33;;;102.60;1484.80;;;;;;4861484;29;20512;-63
2021/03/09 07:03:38;;;;;;;36.65;17.33;;;102.60;1484.80;;;;;;4861288;29;20221;-65
2021/03/09 07:06:04;;;;;;;32.00;17.10;;;102.80;1484.80;;;;;;4861206;29;20026;-63
2021/03/09 07:08:30;;;;;;;47.05;21.23;;;102.90;1484.80;;;;;;4861241;29;20476;-66
2021/03/09 07:10:58;;;;;;;42.67;21.48;;;103.10;1459.20;;;;;;4861228;29;20385;-65
2021/03/09 07:13:26;;;;;;;51.38;23.85;;;103.20;1433.60;;;;;;4861414;29;20037;-65
2021/03/09 07:15:53;;;;;;;48.80;23.75;;;128.00;1459.20;;;;;;4861297;29;20037;-65
2021/03/09 07:18:27;;;;;;;44.28;18.40;;;128.20;1433.60;;;;;;4861221;29;20468;-66
2021/03/09 07:20:55;;;;;;;26.17;11.82;;;128.40;1408.00;;;;;;4861331;29;20018;-66
2021/03/09 07:23:22;;;;;;;27.40;13.38;;;128.60;1382.40;;;;;;4861190;29;20038;-65
2021/03/09 07:26:00;;;;;;;28.50;14.27;;;128.80;1356.80;;;;;;4861011;29;20085;-65
2021/03/09 07:28:34;;;;;;;22.00;11.63;;;153.60;1331.20;;;;;;4861233;29;20468;-65
2021/03/09 07:31:04;;;;;;;20.02;10.48;;;153.70;1305.60;;;;;;4861259;29;20434;-66
2021/03/09 07:33:30;;;;;;;16.27;8.40;;;153.80;1280.00;;;;;;4861239;29;20064;-65
2021/03/09 07:35:57;;;;;;;13.88;7.57;;;154.00;1228.80;;;;;;4861152;29;20043;-65
2021/03/09 07:38:23;;;;;;;15.07;7.72;;;154.00;1228.80;;;;;;4861464;29;20062;-66
2021/03/09 07:40:50;;;;;;;10.27;6.53;;;154.20;1228.80;;;;;;4863559;29;20392;-64
2021/03/09 07:43:16;;;;;;;11.02;5.97;;;154.20;1203.20;;;;;;4864510;29;20033;-65
2021/03/09 07:45:43;;;;;;;15.65;7.68;;;154.40;1177.60;;;;;;4864651;29;20033;-65
2021/03/09 07:48:11;;;;;;;18.70;7.72;;;154.50;1177.60;;;;;;4864315;29;20033;-65
2021/03/09 07:50:43;;;;;;;23.42;10.07;;;179.20;1177.60;;;;;;4864382;29;20041;-66
2021/03/09 07:53:19;;;;;;;28.38;11.45;;;179.30;1177.60;;;;;;4864349;29;20029;-65
2021/03/09 07:55:49;;;;;;;34.05;15.73;;;179.50;1152.00;;;;;;4864358;29;20046;-66
2021/03/09 07:58:26;;;;;;;45.65;22.42;;;179.70;1126.40;;;;;;4864309;29;20030;-65
2021/03/09 08:01:00;;;;;;;51.85;25.38;;;179.80;1100.80;;;;;;4864349;29;20104;-65
2021/03/09 08:03:35;;;;;;;52.55;26.08;;;180.00;1100.80;;;;;;4864155;29;20025;-65
2021/03/09 08:06:14;;;;;;;40.67;21.60;;;180.10;1075.20;;;;;;4864207;29;20025;-66
2021/03/09 08:08:50;;;;;;;39.85;19.63;;;204.90;1075.20;;;;;;4864153;29;20037;-65
2021/03/09 08:11:23;;;;;;;25.15;13.68;;;205.00;1075.20;;;;;;4864003;29;20085;-66
2021/03/09 08:14:08;;;;;;;19.20;9.77;;;205.20;1049.60;;;;;;4863950;29;20091;-66
2021/03/09 08:16:44;;;;;;;22.42;11.32;;;205.40;1049.60;;;;;;4861786;29;20050;-65
2021/03/09 08:19:30;;;;;;;21.38;11.15;;;205.60;1024.00;;;;;;4861932;29;20033;-66
2021/03/09 08:22:01;;;;;;;25.23;10.20;;;230.40;1024.00;;;;;;4789038;30;20111;-65
2021/03/09 08:24:42;;;;;;;16.45;7.90;;;230.50;998.40;;;;;;4789034;30;20156;-66
2021/03/09 08:27:29;;;;;;;13.88;6.50;;;230.70;972.80;;;;;;4784918;30;20047;-62
2021/03/09 08:30:07;;;;;;;9.90;5.63;;;230.90;947.20;;;;;;4787694;30;20035;-63
2021/03/09 08:32:38;;;;;;;11.95;6.30;;;231.10;947.20;;;;;;4786702;29;20047;-65
2021/03/09 08:35:12;;;;;;;17.10;7.90;;;231.30;921.60;;;;;;4787066;30;20067;-63
2021/03/09 08:37:41;;;;;;;;;;;256.00;921.60;;;;;;4788188;30;20035;-63
2021/03/09 08:40:10;;;;;;;17.60;7.07;;;256.20;896.00;;;;;;4786967;30;19909;-67
2021/03/09 08:43:00;;;;;;;16.92;9.15;;;256.30;896.00;;;;;;4787559;30;20035;-67
2021/03/09 08:45:59;;;;;;;11.00;6.65;;;256.40;870.40;;;;;;4787454;29;20067;-68
2021/03/09 08:48:57;;;;;;;13.30;6.75;;;256.60;870.40;;;;;;4787386;30;20039;-65
2021/03/09 08:51:43;;;;;;;10.15;5.43;;;256.80;844.80;;;;;;4733899;30;20040;-66
2021/03/09 08:54:41;;;;;;;18.73;8.98;;;256.90;844.80;;;;;;4721602;30;20444;-66
2021/03/09 08:57:08;;;;;;;17.02;9.40;;;281.60;870.40;;;;;;4699195;30;20439;-67
2021/03/09 08:59:35;;;;;;;19.52;10.55;;;281.80;870.40;;;;;;4726625;30;20055;-67
2021/03/09 09:02:06;;;;;;;17.95;9.43;;;281.80;844.80;;;;;;4751346;30;20055;-68
2021/03/09 09:04:32;;;;;;;12.93;8.18;;;281.90;844.80;;;;;;4751734;30;20036;-68
2021/03/09 09:06:58;;;;;;;14.50;7.15;;;282.10;844.80;;;;;;4751631;30;20040;-66
2021/03/09 09:09:36;;;;;;;11.25;6.43;;;282.20;819.20;;;;;;4750837;30;20037;-66
2021/03/09 09:12:27;;;;;;;19.92;7.88;;;282.20;793.60;;;;;;4746249;30;20059;-68
2021/03/09 09:15:18;;;;;;;19.00;7.47;;;282.40;793.60;;;;;;4751484;30;20527;-65
2021/03/09 09:17:48;;;;;;;9.07;5.40;;;307.20;819.20;;;;;;4716255;30;20081;-66
2021/03/09 09:20:21;;;;;;;12.35;5.50;;;307.20;819.20;;;;;;4714763;30;20600;-67
2021/03/09 09:22:50;;;;;;;8.60;5.72;;;307.40;819.20;;;;;;4716181;30;20040;-67
2021/03/09 09:25:15;;;;;;;10.02;5.97;;;307.40;819.20;;;;;;4716032;30;20071;-67
2021/03/09 09:27:44;;;;;;;10.10;5.90;;;307.40;819.20;;;;;;4757498;30;20036;-68
2021/03/09 09:30:17;;;;;;;12.65;7.10;;;307.60;793.60;;;;;;4769015;30;20518;-67
2021/03/09 09:32:50;;;;;;;13.05;6.70;;;307.70;793.60;;;;;;4784186;29;20171;-66
2021/03/09 09:35:17;;;;;;;17.05;8.35;;;307.90;793.60;;;;;;4804551;29;20498;-67
2021/03/09 09:37:52;;;;;;;13.82;8.05;;;308.00;793.60;;;;;;4804646;29;20035;-66
2021/03/09 09:40:21;;;;;;;17.30;10.10;;;308.10;768.00;;;;;;4804044;29;20039;-65
2021/03/09 09:43:01;;;;;;;19.80;10.63;;;332.80;768.00;;;;;;4801831;29;20031;-68
2021/03/09 09:45:28;;;;;;;28.20;20.95;;;332.90;793.60;;;;;;4802849;29;20062;-65
2021/03/09 09:47:55;;;;;;;25.00;15.45;;;332.90;793.60;;;;;;4800336;29;20091;-67
2021/03/09 09:53:02;;;;;;;19.15;10.93;;;333.10;768.00;;;;;;3657855;29;20063;-67
2021/03/09 09:55:30;;;;;;;14.80;9.85;;;333.30;768.00;;;;;;4861290;29;20046;-66
2021/03/09 09:57:58;;;;;;;16.90;10.10;;;333.30;768.00;;;;;;4861053;29;20089;-66
2021/03/09 10:00:33;;;;;;;14.00;8.32;;;333.40;742.40;;;;;;4861350;29;20033;-66
2021/03/09 10:03:11;;;;;;;12.63;7.85;;;333.40;716.80;;;;;;4860866;29;20497;-66
2021/03/09 10:05:51;;;;;;;;;;;;;;;;;;;;;
2021/03/09 10:08:35;;;;;;;10.88;6.90;;;333.50;742.40;;;;;;4858705;29;20044;-66
2021/03/09 10:11:02;;;;;;;12.02;7.03;;;333.60;742.40;;;;;;4856650;29;20029;-66
2021/03/09 10:13:29;;;;;;;15.02;7.90;;;333.60;742.40;;;;;;4860695;29;20022;-66
2021/03/09 10:15:55;;;;;;;20.48;9.45;;;358.40;716.80;;;;;;4860580;29;20472;-66
2021/03/09 10:18:22;;;;;;;15.68;10.82;;;358.40;716.80;;;;;;4859902;29;20085;-66
2021/03/09 10:21:03;;;;;;;17.95;10.27;;;358.50;716.80;;;;;;4860038;29;20482;-66
2021/03/09 10:23:29;;;;;;;21.13;10.25;;;358.60;716.80;;;;;;4860748;29;20137;-66
2021/03/09 10:26:03;;;;;;;21.38;13.23;;;358.70;691.20;;;;;;4860319;29;20036;-67
2021/03/09 10:28:31;;;;;;;20.10;14.95;;;358.80;691.20;;;;;;4860354;29;20034;-66
2021/03/09 10:30:58;;;;;;;21.30;13.50;;;358.90;691.20;;;;;;4860368;29;20038;-66
2021/03/09 10:33:23;;;;;;;16.63;11.25;;;359.00;691.20;;;;;;4859805;29;20113;-66
2021/03/09 10:36:12;;;;;;;17.98;10.45;;;359.10;691.20;;;;;;4858727;29;20128;-65
2021/03/09 10:38:38;;;;;;;12.88;9.07;;;359.20;691.20;;;;;;4859350;29;20037;-65
2021/03/09 10:41:04;;;;;;;14.88;10.23;;;359.30;691.20;;;;;;4859006;29;20025;-65
2021/03/09 10:43:40;;;;;;;15.32;9.60;;;384.10;691.20;;;;;;4858378;29;20040;-65
2021/03/09 10:46:06;;;;;;;12.77;8.65;;;384.20;665.60;;;;;;4859585;29;20499;-66
2021/03/09 10:48:31;;;;;;;20.40;12.07;;;384.30;640.00;;;;;;4859102;29;20033;-66
2021/03/09 10:50:57;;;;;;;22.85;14.35;;;384.30;665.60;;;;;;4858270;29;20178;-66
2021/03/09 10:53:23;;;;;;;17.88;11.50;;;384.30;665.60;;;;;;4859133;29;20060;-63
2021/03/09 10:55:48;;;;;;;22.02;12.77;;;384.40;665.60;;;;;;4859170;29;20433;-65
2021/03/09 10:58:14;;;;;;;16.52;9.55;;;384.50;640.00;;;;;;4859417;29;20060;-66
2021/03/09 11:00:40;;;;;;;14.77;9.63;;;384.30;640.00;;;;;;4859953;29;20033;-66
2021/03/09 11:03:05;;;;;;;13.40;8.27;;;384.20;640.00;;;;;;4859662;29;20025;-64
2021/03/09 11:05:31;;;;;;;15.05;8.30;;;384.20;665.60;;;;;;4859289;29;20294;-65
2021/03/09 11:07:57;;;;;;;26.33;9.50;;;384.20;640.00;;;;;;4860233;29;20033;-66
2021/03/09 11:10:22;;;;;;;30.02;9.43;;;384.20;640.00;;;;;;4859490;29;20042;-65
2021/03/09 11:12:48;;;;;;;13.63;7.65;;;384.20;640.00;;;;;;4859079;29;20037;-65
2021/03/09 11:15:14;;;;;;;18.80;7.30;;;384.30;640.00;;;;;;4862916;29;20038;-62
2021/03/09 11:17:40;;;;;;;11.77;7.43;;;384.40;640.00;;;;;;4863391;29;20033;-66
2021/03/09 11:20:07;;;;;;;10.35;7.30;;;384.40;640.00;;;;;;4863260;29;20053;-65
2021/03/09 11:22:33;;;;;;;11.82;7.97;;;384.40;640.00;;;;;;4877585;29;20057;-65
2021/03/09 11:24:58;;;;;;;11.82;7.00;;;384.50;640.00;;;;;;4863437;29;20033;-64
2021/03/09 11:27:24;;;;;;;11.10;7.45;;;384.50;640.00;;;;;;4864020;29;20502;-66
2021/03/09 11:29:50;;;;;;;15.02;7.53;;;384.50;640.00;;;;;;4863612;29;20033;-65
2021/03/09 11:32:16;;;;;;;14.35;8.73;;;384.50;640.00;;;;;;4863492;29;20511;-65
2021/03/09 11:34:42;;;;;;;12.52;8.07;;;384.50;640.00;;;;;;4863977;29;20360;-64
2021/03/09 11:37:08;;;;;;;11.45;6.97;;;384.50;640.00;;;;;;4863157;29;20053;-64
2021/03/09 11:39:34;;;;;;;9.43;7.07;;;384.50;640.00;;;;;;4863454;29;20030;-64
2021/03/09 11:42:00;;;;;;;14.30;7.47;;;384.40;640.00;;;;;;4876852;29;20032;-65
2021/03/09 11:44:26;;;;;;;10.98;7.63;;;384.40;640.00;;;;;;4881630;29;20076;-61
2021/03/09 11:46:52;;;;;;;14.68;6.53;;;384.20;640.00;;;;;;4880211;29;20171;-64
2021/03/09 11:49:18;;;;;;;14.68;7.55;;;384.10;640.00;;;;;;4879352;29;20040;-66
2021/03/09 11:51:43;;;;;;;16.90;8.88;;;384.00;640.00;;;;;;4881920;29;20049;-63
2021/03/09 11:54:10;;;;;;;24.73;14.45;;;384.00;640.00;;;;;;4881794;29;20117;-65
2021/03/09 11:56:35;;;;;;;35.67;16.08;;;359.30;640.00;;;;;;4881481;29;20044;-66
2021/03/09 11:59:01;;;;;;;19.83;11.13;;;359.20;640.00;;;;;;4882036;29;20025;-65
2021/03/09 12:01:27;;;;;;;21.88;10.95;;;359.10;640.00;;;;;;4881895;29;20055;-65
2021/03/09 12:03:56;;;;;;;19.88;9.73;;;359.10;640.00;;;;;;4881597;29;20040;-66
2021/03/09 12:06:21;;;;;;;67.18;29.80;;;359.00;640.00;;;;;;4881761;29;20432;-65
2021/03/09 12:08:48;;;;;;;40.42;21.17;;;359.00;640.00;;;;;;4881841;29;20037;-66
2021/03/09 12:11:14;;;;;;;34.55;18.50;;;358.90;640.00;;;;;;4881470;29;20033;-67
2021/03/09 12:13:40;;;;;;;23.60;13.65;;;358.90;640.00;;;;;;4881840;29;20415;-66
2021/03/09 12:16:06;;;;;;;18.83;11.82;;;358.90;640.00;;;;;;4881210;29;20045;-67
2021/03/09 12:18:32;;;;;;;20.55;10.00;;;358.80;640.00;;;;;;4881822;29;20104;-67
2021/03/09 12:20:58;;;;;;;23.52;10.02;;;358.70;640.00;;;;;;4880596;29;20530;-67
2021/03/09 12:23:24;;;;;;;21.10;9.30;;;358.60;665.60;;;;;;4881904;29;20029;-66
2021/03/09 12:25:51;;;;;;;56.95;12.85;;;358.60;691.20;;;;;;4879657;29;20443;-68